Time;durP1;ratioP1;P1;durP2;ratioP2;P2;SDS_P1;SDS_P2;PMS_P1;PMS_P2;Temp;Humidity;BMP_temperature;BMP_pressure;BME280_temperature;BME280_humidity;BME280_pressure;Samples;Min_cycle;Max_cycle;Signal;HPM_P1;HPM_P2
2022/03/14 00:00:19;;;;;;;40.13;18.93;;;;;;;3.41;55.66;100918.44;5111787;28;20289;-79
2022/03/14 00:02:46;;;;;;;69.87;28.43;;;;;;;3.18;55.63;100878.56;5111677;28;20205;-78
2022/03/14 00:05:17;;;;;;;54.50;22.63;;;;;;;3.37;55.98;100906.41;5111833;28;20202;-79
2022/03/14 00:07:45;;;;;;;39.87;17.40;;;;;;;3.38;56.00;100904.69;5111955;28;20205;-80
2022/03/14 00:10:15;;;;;;;32.20;16.30;;;;;;;3.46;56.01;100922.00;5106769;28;20191;-79
2022/03/14 00:12:43;;;;;;;32.43;14.37;;;;;;;3.42;56.07;100916.75;5109114;28;20202;-79
2022/03/14 00:15:11;;;;;;;22.70;11.73;;;;;;;3.35;56.35;100922.59;5098855;28;20575;-79
2022/03/14 00:17:40;;;;;;;18.90;10.40;;;;;;;3.28;56.70;100916.44;5091101;28;20198;-79
2022/03/14 00:20:09;;;;;;;28.33;12.63;;;;;;;3.38;57.04;100920.97;5091465;28;20566;-80
2022/03/14 00:22:37;;;;;;;18.57;10.10;;;;;;;3.45;56.51;100920.25;5091333;28;20202;-79
2022/03/14 00:25:05;;;;;;;17.43;9.70;;;;;;;3.48;56.98;100922.91;5096668;28;20645;-79
2022/03/14 00:27:32;;;;;;;22.27;11.90;;;;;;;3.56;56.56;100921.38;5111339;28;20199;-79
2022/03/14 00:29:59;;;;;;;35.70;16.10;;;;;;;3.36;57.03;100893.53;5111543;28;20700;-79
2022/03/14 00:32:26;;;;;;;34.53;17.27;;;;;;;3.55;56.97;100923.88;5110894;28;20208;-79
2022/03/14 00:34:53;;;;;;;31.40;14.67;;;;;;;3.56;57.21;100928.19;5111679;28;20649;-79
2022/03/14 00:37:20;;;;;;;26.77;14.27;;;;;;;3.54;57.46;100914.44;5111664;28;20233;-79
2022/03/14 00:39:48;;;;;;;25.53;12.93;;;;;;;3.61;57.27;100918.91;5111523;28;20198;-80
2022/03/14 00:42:19;;;;;;;38.47;19.10;;;;;;;3.31;57.41;100872.88;5111372;28;20206;-79
2022/03/14 00:44:46;;;;;;;47.80;22.57;;;;;;;3.59;57.78;100930.84;5111755;28;20201;-81
2022/03/14 00:47:13;;;;;;;60.33;27.33;;;;;;;3.04;58.37;100859.44;5111270;28;20190;-81
2022/03/14 00:49:40;;;;;;;47.83;22.23;;;;;;;3.24;59.61;100927.47;5111428;28;20204;-79
2022/03/14 00:52:07;;;;;;;42.83;20.73;;;;;;;3.05;60.23;100915.06;5111285;28;20558;-81
2022/03/14 00:54:34;;;;;;;33.93;16.20;;;;;;;3.12;60.86;100932.31;5110926;28;20201;-79
2022/03/14 00:57:02;;;;;;;25.83;14.27;;;;;;;3.06;60.01;100897.09;5110653;28;20723;-79
2022/03/14 00:59:29;;;;;;;21.63;14.13;;;;;;;3.07;61.06;100932.19;5110776;28;20199;-79
2022/03/14 01:01:56;;;;;;;23.40;13.47;;;;;;;3.01;60.47;100908.09;5111017;28;20198;-80
2022/03/14 01:04:23;;;;;;;20.53;11.73;;;;;;;2.88;60.96;100897.53;5111120;28;20194;-79
2022/03/14 01:06:50;;;;;;;25.60;12.90;;;;;;;2.74;61.91;100877.53;5111018;28;20190;-79
2022/03/14 01:09:17;;;;;;;22.10;13.00;;;;;;;3.04;61.18;100934.69;5110950;28;20203;-80
2022/03/14 01:11:45;;;;;;;24.50;12.13;;;;;;;2.92;62.31;100917.31;5110727;28;20197;-80
2022/03/14 01:14:13;;;;;;;27.93;14.87;;;;;;;3.06;62.22;100938.16;5111080;28;20623;-80
2022/03/14 01:16:40;;;;;;;28.60;15.77;;;;;;;3.14;61.84;100933.22;5110739;28;20232;-80
2022/03/14 01:19:11;;;;;;;26.87;15.00;;;;;;;2.70;62.55;100866.34;5110888;28;20580;-79
2022/03/14 01:21:38;;;;;;;27.20;14.23;;;;;;;2.57;62.57;100850.63;5110850;28;20565;-80
2022/03/14 01:24:06;;;;;;;22.70;12.53;;;;;;;2.99;62.76;100943.97;5110592;28;20194;-80
2022/03/14 01:26:34;;;;;;;25.17;13.17;;;;;;;2.91;62.20;100905.31;5110816;28;20198;-79
2022/03/14 01:29:02;;;;;;;21.33;13.53;;;;;;;2.93;62.43;100898.50;5096228;28;20206;-80
2022/03/14 01:31:31;;;;;;;22.90;13.30;;;;;;;3.12;63.11;100940.88;5090295;28;20242;-80
2022/03/14 01:33:58;;;;;;;22.03;12.83;;;;;;;2.95;62.86;100911.38;5090492;28;20199;-80
2022/03/14 01:36:25;;;;;;;24.83;14.27;;;;;;;2.86;64.50;100937.66;5089940;28;20840;-82
2022/03/14 01:38:52;;;;;;;24.63;13.60;;;;;;;2.92;64.00;100940.41;5090541;28;20660;-81
2022/03/14 01:41:22;;;;;;;20.57;12.53;;;;;;;3.07;63.44;100945.00;5090272;28;20202;-80
2022/03/14 01:43:49;;;;;;;19.13;12.03;;;;;;;2.99;64.66;100946.53;5090729;28;20242;-80
2022/03/14 01:46:17;;;;;;;19.23;11.47;;;;;;;2.75;64.80;100910.03;5094409;28;20190;-80
2022/03/14 01:48:45;;;;;;;18.90;10.93;;;;;;;2.97;65.66;100955.00;5093664;28;20234;-80
2022/03/14 01:51:13;;;;;;;19.57;11.20;;;;;;;2.85;65.96;100956.44;5093742;28;20191;-81
2022/03/14 01:53:41;;;;;;;16.20;11.67;;;;;;;2.70;67.43;100950.06;5093655;28;20202;-81
2022/03/14 01:56:12;;;;;;;20.23;12.33;;;;;;;2.78;68.15;100964.81;5093753;28;20316;-81
2022/03/14 01:58:39;;;;;;;21.03;12.50;;;;;;;2.70;69.00;100961.19;5093774;28;20195;-80
2022/03/14 02:01:06;;;;;;;29.00;13.90;;;;;;;2.69;69.81;100969.72;5093662;28;20203;-80
2022/03/14 02:03:33;;;;;;;22.10;13.57;;;;;;;2.67;70.61;100976.50;5093395;28;20293;-79
2022/03/14 02:06:02;;;;;;;26.77;14.80;;;;;;;2.62;71.58;100969.50;5093458;28;20204;-80
2022/03/14 02:08:29;;;;;;;30.53;16.03;;;;;;;2.71;70.63;100956.94;5093514;28;20220;-79
2022/03/14 02:10:56;;;;;;;28.13;17.10;;;;;;;2.78;70.44;100961.38;5093457;28;20202;-80
2022/03/14 02:13:23;;;;;;;28.80;18.10;;;;;;;2.81;70.90;100990.56;5093620;28;20191;-81
2022/03/14 02:15:50;;;;;;;31.20;18.07;;;;;;;2.71;70.99;100988.53;5093246;28;20199;-81
2022/03/14 02:18:16;;;;;;;36.47;18.53;;;;;;;2.55;71.96;100971.03;5093362;28;20240;-81
2022/03/14 02:20:46;;;;;;;27.13;17.67;;;;;;;2.65;70.94;100960.19;5093386;28;20202;-80
2022/03/14 02:23:13;;;;;;;35.80;18.97;;;;;;;2.68;72.42;101003.88;5093478;28;20577;-79
2022/03/14 02:25:47;;;;;;;31.63;19.30;;;;;;;2.50;73.61;100999.09;5093284;28;20229;-80
2022/03/14 02:28:15;;;;;;;34.13;19.50;;;;;;;2.50;73.94;101011.03;5093238;28;20287;-80
2022/03/14 02:30:42;;;;;;;29.13;17.13;;;;;;;2.36;75.25;100995.31;5092897;28;20200;-80
2022/03/14 02:33:09;;;;;;;31.83;17.33;;;;;;;2.50;74.81;101019.59;5093228;28;20248;-79
2022/03/14 02:35:39;;;;;;;26.47;16.43;;;;;;;2.41;74.87;101001.41;5092939;28;20195;-80
2022/03/14 02:38:09;;;;;;;32.17;16.40;;;;;;;2.63;74.43;101015.69;5092851;28;20728;-80
2022/03/14 02:40:37;;;;;;;29.23;16.83;;;;;;;2.33;74.75;101002.91;5093012;28;20197;-81
2022/03/14 02:43:04;;;;;;;29.63;16.27;;;;;;;2.41;75.16;101019.34;5092824;28;20280;-81
2022/03/14 02:45:32;;;;;;;29.63;16.37;;;;;;;2.43;75.25;101024.53;5092567;28;20194;-80
2022/03/14 02:48:01;;;;;;;32.67;18.43;;;;;;;2.42;76.13;101027.91;5092260;28;20226;-80
2022/03/14 02:50:30;;;;;;;30.30;16.77;;;;;;;2.24;77.05;101023.13;5092670;28;20201;-80
2022/03/14 02:52:58;;;;;;;27.67;15.67;;;;;;;2.29;77.15;101018.13;5092832;28;20235;-80
2022/03/14 02:55:27;;;;;;;29.47;16.10;;;;;;;2.54;75.18;101026.56;5092390;28;20670;-80
2022/03/14 02:57:54;;;;;;;26.63;15.90;;;;;;;2.58;74.62;101032.66;5092574;28;20282;-80
2022/03/14 03:00:21;;;;;;;32.30;16.80;;;;;;;2.65;73.69;101028.53;5093002;28;20672;-81
2022/03/14 03:02:48;;;;;;;29.90;15.77;;;;;;;2.61;73.88;101034.41;5092970;28;20606;-80
2022/03/14 03:05:15;;;;;;;27.33;15.57;;;;;;;2.59;73.51;101034.38;5092500;28;20196;-81
2022/03/14 03:07:42;;;;;;;26.33;15.53;;;;;;;2.65;73.83;101036.22;5092767;28;20217;-81
2022/03/14 03:10:11;;;;;;;27.77;16.07;;;;;;;2.59;74.44;101039.50;5092671;28;20672;-80
2022/03/14 03:12:40;;;;;;;26.83;15.17;;;;;;;2.46;74.87;101032.31;5092947;28;20283;-81
2022/03/14 03:15:15;;;;;;;29.10;15.37;;;;;;;2.50;74.77;101044.34;5092841;28;20222;-81
2022/03/14 03:17:42;;;;;;;27.90;15.30;;;;;;;2.38;75.44;101039.75;5093063;28;20675;-81
2022/03/14 03:20:10;;;;;;;27.80;14.83;;;;;;;2.44;74.63;101044.19;5092632;28;20202;-81
2022/03/14 03:22:38;;;;;;;24.53;13.87;;;;;;;2.43;74.74;101048.44;5092502;28;20654;-81
2022/03/14 03:25:06;;;;;;;25.97;14.77;;;;;;;2.10;74.21;100996.25;5092466;28;20289;-79
2022/03/14 03:27:33;;;;;;;24.33;14.63;;;;;;;2.41;74.19;101038.97;5092214;28;20192;-80
2022/03/14 03:30:02;;;;;;;26.07;14.73;;;;;;;2.46;72.94;101056.25;5092076;28;20200;-80
2022/03/14 03:32:29;;;;;;;25.97;13.93;;;;;;;2.49;71.92;101055.44;5092058;28;20585;-80
2022/03/14 03:34:56;;;;;;;26.37;14.23;;;;;;;2.56;71.41;101057.34;5091810;28;20199;-80
2022/03/14 03:37:23;;;;;;;22.77;13.60;;;;;;;2.59;70.67;101064.28;5091778;28;20223;-80
2022/03/14 03:39:50;;;;;;;21.60;13.37;;;;;;;2.53;69.76;101070.94;5091835;28;20208;-79
2022/03/14 03:42:17;;;;;;;22.17;13.63;;;;;;;2.27;70.29;101048.81;5091762;28;20198;-79
2022/03/14 03:44:44;;;;;;;21.17;13.40;;;;;;;2.37;70.51;101079.00;5091566;28;20223;-79
2022/03/14 03:47:12;;;;;;;20.13;13.10;;;;;;;2.46;70.57;101078.44;5091423;28;20579;-80
2022/03/14 03:49:39;;;;;;;20.40;12.70;;;;;;;2.42;70.64;101081.72;5091527;28;20199;-78
2022/03/14 03:52:07;;;;;;;21.30;12.90;;;;;;;2.49;69.20;101075.94;5091898;28;20252;-80
2022/03/14 03:54:35;;;;;;;22.77;12.33;;;;;;;2.39;69.68;101067.13;5091709;28;20634;-80
2022/03/14 03:57:01;;;;;;;21.57;12.90;;;;;;;2.37;70.02;101083.28;5091569;28;20223;-80
2022/03/14 03:59:28;;;;;;;17.67;12.00;;;;;;;2.26;69.83;101084.69;5091398;28;20201;-80
2022/03/14 04:01:55;;;;;;;19.80;12.07;;;;;;;2.05;70.47;101062.69;5115642;27;20589;-80
2022/03/14 04:04:26;;;;;;;19.87;12.03;;;;;;;2.27;69.62;101092.38;5111959;28;20206;-79
2022/03/14 04:06:56;;;;;;;22.13;12.90;;;;;;;2.17;70.30;101086.13;5111125;28;20798;-80
2022/03/14 04:09:24;;;;;;;21.20;12.60;;;;;;;2.19;69.75;101094.72;5111708;28;20223;-79
2022/03/14 04:11:51;;;;;;;23.17;12.73;;;;;;;2.33;69.63;101102.81;5106714;28;20198;-81
2022/03/14 04:14:21;;;;;;;18.00;11.87;;;;;;;2.33;69.55;101101.94;5106802;28;20275;-78
2022/03/14 04:16:49;;;;;;;19.03;11.83;;;;;;;2.23;69.28;101099.94;5106407;28;20359;-78
2022/03/14 04:19:18;;;;;;;25.33;12.93;;;;;;;2.32;69.36;101113.91;5102478;28;20229;-79
2022/03/14 04:21:48;;;;;;;16.57;11.83;;;;;;;2.41;68.96;101108.16;5110769;28;20223;-77
2022/03/14 04:24:16;;;;;;;18.80;12.13;;;;;;;2.09;68.39;101076.47;5110971;28;20220;-76
2022/03/14 04:26:43;;;;;;;21.87;12.83;;;;;;;2.28;69.60;101119.72;5110031;28;20219;-78
2022/03/14 04:29:10;;;;;;;23.57;12.97;;;;;;;2.27;69.03;101124.81;5110687;28;20739;-78
2022/03/14 04:31:37;;;;;;;24.07;12.93;;;;;;;2.12;69.24;101090.25;5109985;28;20236;-76
2022/03/14 04:34:04;;;;;;;25.33;13.63;;;;;;;2.27;69.04;101135.06;5110767;28;20598;-78
2022/03/14 04:36:31;;;;;;;23.87;12.70;;;;;;;2.32;69.43;101125.84;5110455;28;20781;-77
2022/03/14 04:38:59;;;;;;;28.37;12.97;;;;;;;2.43;69.01;101129.59;5110213;28;20579;-77
2022/03/14 04:41:26;;;;;;;22.57;12.80;;;;;;;2.47;67.97;101134.00;5099055;28;20216;-77
2022/03/14 04:43:53;;;;;;;20.87;13.50;;;;;;;2.33;69.25;101130.13;5107735;28;20697;-77
2022/03/14 04:46:20;;;;;;;22.70;13.37;;;;;;;2.41;68.52;101134.66;5097346;28;20221;-76
2022/03/14 04:48:47;;;;;;;21.67;13.40;;;;;;;2.24;68.34;101092.31;5101084;28;20222;-77
2022/03/14 04:51:14;;;;;;;21.00;13.33;;;;;;;2.39;69.09;101128.63;5103202;28;20276;-76
2022/03/14 04:53:41;;;;;;;26.00;14.30;;;;;;;2.55;68.40;101114.56;5100340;28;20709;-80
2022/03/14 04:56:09;;;;;;;28.47;14.37;;;;;;;2.53;68.39;101118.78;5104849;28;20236;-79
2022/03/14 04:58:36;;;;;;;28.30;14.20;;;;;;;2.68;67.09;101123.50;5094937;28;21456;-78
2022/03/14 05:01:03;;;;;;;21.67;12.43;;;;;;;2.81;66.84;101139.28;5098008;28;20201;-76
2022/03/14 05:03:30;;;;;;;23.50;13.40;;;;;;;2.78;66.54;101139.19;5103219;28;20194;-77
2022/03/14 05:05:57;;;;;;;21.17;13.20;;;;;;;1.88;66.61;100988.75;5110017;28;20727;-79
2022/03/14 05:08:24;;;;;;;24.33;13.77;;;;;;;2.85;66.03;101146.22;5110706;28;20248;-80
2022/03/14 05:10:51;;;;;;;24.70;13.83;;;;;;;2.79;66.27;101147.75;5092268;28;20217;-78
2022/03/14 05:13:20;;;;;;;23.23;12.83;;;;;;;2.49;67.02;101146.00;5089490;28;20585;-83
2022/03/14 05:15:47;;;;;;;23.57;14.03;;;;;;;2.53;67.06;101157.22;5101129;28;20224;-79
2022/03/14 05:18:14;;;;;;;28.70;14.93;;;;;;;2.47;67.78;101175.88;5111039;28;20670;-77
2022/03/14 05:20:41;;;;;;;26.27;14.57;;;;;;;2.52;68.40;101181.97;5113669;28;20813;-76
2022/03/14 05:23:08;;;;;;;25.33;14.50;;;;;;;2.49;66.85;101146.00;5106997;28;20598;-75
2022/03/14 05:25:35;;;;;;;23.10;13.53;;;;;;;2.71;67.20;101175.69;5097038;28;20217;-76
2022/03/14 05:28:02;;;;;;;24.03;14.53;;;;;;;2.78;67.13;101184.47;5107208;27;20241;-77
2022/03/14 05:30:31;;;;;;;26.40;14.63;;;;;;;2.79;67.38;101191.31;5111785;27;20220;-77
2022/03/14 05:32:58;;;;;;;27.43;14.20;;;;;;;2.95;66.98;101187.50;5110744;28;20247;-77
2022/03/14 05:35:25;;;;;;;24.50;14.30;;;;;;;3.01;66.30;101188.56;5113687;28;20230;-77
2022/03/14 05:37:52;;;;;;;26.47;15.00;;;;;;;2.98;66.61;101187.59;5111701;28;20239;-75
2022/03/14 05:40:20;;;;;;;25.67;15.30;;;;;;;2.88;67.02;101181.34;5106355;28;20315;-76
2022/03/14 05:42:49;;;;;;;30.77;15.37;;;;;;;2.85;66.50;101187.25;5113730;28;20211;-76
2022/03/14 05:45:17;;;;;;;23.23;14.13;;;;;;;2.82;66.91;101169.19;5108346;28;20613;-76
2022/03/14 05:47:46;;;;;;;32.37;15.73;;;;;;;3.01;66.49;101190.25;5102638;28;20242;-75
2022/03/14 05:50:13;;;;;;;31.20;15.33;;;;;;;3.06;66.14;101186.97;5106233;28;20219;-77
2022/03/14 05:52:40;;;;;;;26.63;14.70;;;;;;;3.16;66.13;101194.09;5101468;28;20225;-77
2022/03/14 05:55:08;;;;;;;29.57;15.47;;;;;;;3.23;65.73;101195.16;5101363;28;20225;-77
2022/03/14 05:57:35;;;;;;;30.07;16.10;;;;;;;3.16;64.93;101157.34;5102746;28;20225;-77
2022/03/14 06:00:03;;;;;;;26.80;14.63;;;;;;;3.56;65.29;101198.63;5096517;28;20229;-77
2022/03/14 06:02:30;;;;;;;28.50;14.73;;;;;;;3.77;63.99;101195.75;5102312;28;20327;-75
2022/03/14 06:04:58;;;;;;;24.17;14.57;;;;;;;3.94;62.25;101199.63;5101401;28;20219;-77
2022/03/14 06:07:25;;;;;;;26.33;13.80;;;;;;;4.15;61.91;101188.13;5103230;28;20287;-77
2022/03/14 06:09:52;;;;;;;28.10;14.37;;;;;;;4.38;60.87;101198.13;5099419;28;20574;-75
2022/03/14 06:12:25;;;;;;;36.47;15.33;;;;;;;4.37;59.85;101173.25;5101526;28;20222;-77
2022/03/14 06:14:54;;;;;;;25.67;14.60;;;;;;;4.83;59.01;101207.69;5102418;28;20615;-77
2022/03/14 06:17:21;;;;;;;29.50;13.30;;;;;;;5.03;57.53;101211.53;5099811;28;20223;-77
2022/03/14 06:19:48;;;;;;;21.23;12.97;;;;;;;5.01;56.19;101194.31;5103922;28;20211;-78
2022/03/14 06:22:17;;;;;;;17.83;11.33;;;;;;;5.49;55.70;101217.59;5103191;28;20229;-77
2022/03/14 06:24:47;;;;;;;21.73;11.73;;;;;;;6.09;54.21;101219.56;5106462;28;20214;-77
2022/03/14 06:27:15;;;;;;;19.77;12.13;;;;;;;6.90;51.15;101226.78;5102176;28;20245;-77
2022/03/14 06:29:42;;;;;;;19.73;11.53;;;;;;;7.31;49.85;101218.72;5103097;28;20191;-76
2022/03/14 06:32:10;;;;;;;27.63;11.30;;;;;;;7.50;48.39;101202.56;5102511;28;20739;-77
2022/03/14 06:34:37;;;;;;;24.00;12.30;;;;;;;7.86;47.89;101236.53;5100796;28;20194;-75
2022/03/14 06:37:06;;;;;;;22.50;13.67;;;;;;;7.93;47.76;101240.03;5106103;28;20195;-76
2022/03/14 06:39:36;;;;;;;17.87;11.30;;;;;;;8.11;46.96;101241.94;5103483;28;20636;-75
2022/03/14 06:42:03;;;;;;;22.07;13.93;;;;;;;8.14;46.27;101252.28;5099878;28;20198;-76
2022/03/14 06:44:30;;;;;;;20.23;14.80;;;;;;;8.13;46.16;101251.41;5102032;28;20633;-76
2022/03/14 06:46:57;;;;;;;16.17;11.80;;;;;;;8.91;45.26;101257.22;5111612;28;20202;-77
2022/03/14 06:49:24;;;;;;;19.17;11.60;;;;;;;9.86;43.70;101259.31;5112002;28;20233;-76
2022/03/14 06:51:51;;;;;;;18.47;12.20;;;;;;;10.54;41.56;101253.31;5112379;28;20251;-77
2022/03/14 06:54:18;;;;;;;13.67;10.83;;;;;;;11.02;40.72;101261.91;5112204;28;20571;-76
2022/03/14 06:56:47;;;;;;;15.57;11.47;;;;;;;10.78;40.54;101248.09;5111858;28;20218;-76
2022/03/14 06:59:14;;;;;;;18.63;12.17;;;;;;;10.64;40.54;101268.03;5111601;28;20229;-76
2022/03/14 07:01:41;;;;;;;25.20;12.07;;;;;;;10.50;40.75;101236.88;5111623;28;20241;-78
2022/03/14 07:04:08;;;;;;;16.67;11.47;;;;;;;11.13;39.44;101268.78;5111722;28;20202;-77
2022/03/14 07:06:35;;;;;;;12.80;10.90;;;;;;;11.24;38.90;101269.63;5111818;28;20194;-78
2022/03/14 07:09:04;;;;;;;22.00;11.73;;;;;;;12.16;37.79;101271.78;5111904;28;20755;-78
2022/03/14 07:11:31;;;;;;;16.83;11.57;;;;;;;12.67;36.06;101241.78;5111785;28;20222;-78
2022/03/14 07:14:00;;;;;;;21.20;12.70;;;;;;;13.49;34.71;101276.53;5111755;28;20191;-80
2022/03/14 07:16:27;;;;;;;17.20;12.20;;;;;;;13.54;34.20;101244.31;5111413;28;20203;-78
2022/03/14 07:18:54;;;;;;;15.50;12.57;;;;;;;12.86;34.91;101273.78;5111466;28;20226;-78
2022/03/14 07:21:21;;;;;;;17.63;12.40;;;;;;;11.80;37.41;101237.31;5111547;28;20202;-80
2022/03/14 07:23:48;;;;;;;19.93;11.20;;;;;;;13.07;35.24;101270.94;5111492;28;20195;-79
2022/03/14 07:26:15;;;;;;;21.27;11.63;;;;;;;14.63;33.63;101278.34;5111384;28;20621;-79
2022/03/14 07:28:43;;;;;;;19.53;12.50;;;;;;;15.10;31.75;101274.84;5111264;28;20653;-79
2022/03/14 07:31:11;;;;;;;17.43;11.87;;;;;;;15.55;31.53;101275.72;5111307;28;20199;-79
2022/03/14 07:33:38;;;;;;;12.87;10.43;;;;;;;15.12;29.82;101283.50;5111166;28;20195;-77
2022/03/14 07:36:05;;;;;;;14.80;10.27;;;;;;;14.92;30.90;101285.63;5111440;28;20637;-79
2022/03/14 07:38:32;;;;;;;16.53;10.20;;;;;;;14.34;31.30;101289.22;5106073;28;20207;-79
2022/03/14 07:40:59;;;;;;;11.23;9.63;;;;;;;14.19;31.10;101286.88;5110840;28;20202;-80
2022/03/14 07:43:26;;;;;;;10.63;9.20;;;;;;;13.49;31.16;101290.44;5111134;28;20210;-80
2022/03/14 07:45:53;;;;;;;10.80;9.80;;;;;;;13.01;31.33;101289.22;5111270;28;20195;-77
2022/03/14 07:48:21;;;;;;;12.70;9.80;;;;;;;11.61;33.82;101278.16;5111111;28;20218;-77
2022/03/14 07:50:48;;;;;;;12.33;10.33;;;;;;;11.34;34.30;101262.66;5110844;28;20198;-79
2022/03/14 07:53:15;;;;;;;14.10;9.90;;;;;;;10.49;36.20;101265.47;5110829;28;20208;-78
2022/03/14 07:55:42;;;;;;;16.50;10.30;;;;;;;10.08;35.83;101227.34;5107716;28;20735;-78
2022/03/14 07:58:09;;;;;;;12.27;10.17;;;;;;;9.65;36.33;101252.34;5102173;28;20229;-78
2022/03/14 08:00:36;;;;;;;13.37;10.17;;;;;;;9.66;36.85;101284.34;5103909;28;20193;-78
2022/03/14 08:03:03;;;;;;;17.40;10.70;;;;;;;9.39;38.14;101291.13;5105114;28;20203;-78
2022/03/14 08:05:31;;;;;;;13.90;10.20;;;;;;;9.01;38.19;101228.78;5111214;28;20202;-78
2022/03/14 08:08:00;;;;;;;47.80;13.70;;;;;;;9.23;39.72;101294.53;5110312;28;20201;-81
2022/03/14 08:10:29;;;;;;;61.77;15.30;;;;;;;9.12;39.42;101283.25;5111284;28;20206;-78
2022/03/14 08:12:58;;;;;;;30.07;12.67;;;;;;;9.05;39.18;101299.59;5103305;28;20195;-78
2022/03/14 08:15:26;;;;;;;34.10;13.43;;;;;;;9.07;39.59;101297.88;5110715;28;20199;-78
2022/03/14 08:17:54;;;;;;;23.53;11.70;;;;;;;9.05;39.88;101294.41;5111163;28;20228;-78
2022/03/14 08:20:22;;;;;;;21.93;12.27;;;;;;;9.24;39.42;101292.81;5111127;28;20191;-79
2022/03/14 08:22:52;;;;;;;16.93;12.47;;;;;;;9.10;39.07;101254.72;5107742;28;20675;-78
2022/03/14 08:25:19;;;;;;;30.07;13.77;;;;;;;9.10;39.54;101292.72;5104399;28;20203;-78
2022/03/14 08:27:46;;;;;;;19.60;11.70;;;;;;;9.14;39.21;101296.22;5103465;28;20190;-77
2022/03/14 08:30:14;;;;;;;30.00;12.83;;;;;;;9.07;40.09;101297.88;5101184;28;20206;-77
2022/03/14 08:32:42;;;;;;;38.83;12.90;;;;;;;9.15;39.54;101301.38;5105837;28;20198;-78
2022/03/14 08:35:10;;;;;;;20.10;11.87;;;;;;;9.01;39.98;101300.44;5103657;28;20281;-77
2022/03/14 08:37:39;;;;;;;18.27;11.77;;;;;;;8.79;39.55;101301.16;5110846;28;20190;-78
2022/03/14 08:40:10;;;;;;;26.23;13.43;;;;;;;8.91;40.22;101306.44;5106903;28;20588;-80
2022/03/14 08:42:40;;;;;;;19.23;12.10;;;;;;;8.96;40.37;101292.63;5111719;28;20190;-80
2022/03/14 08:45:09;;;;;;;16.50;11.60;;;;;;;8.80;39.83;101306.38;5111408;28;20688;-81
2022/03/14 08:47:36;;;;;;;16.63;11.53;;;;;;;8.68;39.79;101306.28;5110858;28;20226;-81
2022/03/14 08:50:04;;;;;;;31.83;14.87;;;;;;;8.72;40.23;101301.09;5111030;28;20642;-80
2022/03/14 08:52:31;;;;;;;19.47;13.00;;;;;;;8.58;40.75;101297.53;5110497;28;20670;-80
2022/03/14 08:54:59;;;;;;;19.03;11.50;;;;;;;8.50;40.51;101298.34;5110775;28;20205;-80
2022/03/14 08:57:27;;;;;;;21.80;10.63;;;;;;;8.69;39.73;101295.91;5110754;28;20200;-79
2022/03/14 08:59:55;;;;;;;32.47;13.10;;;;;;;8.61;38.39;101265.66;5111083;28;20597;-82
2022/03/14 09:02:22;;;;;;;17.87;11.00;;;;;;;8.80;38.93;101298.59;5110871;28;20191;-82
2022/03/14 09:04:49;;;;;;;20.47;13.03;;;;;;;8.43;39.44;101270.69;5110776;28;20227;-81
2022/03/14 09:07:25;;;;;;;26.83;11.13;;;;;;;8.48;39.02;101284.50;5111235;28;20625;-79
2022/03/14 09:09:52;;;;;;;19.03;10.77;;;;;;;8.55;39.29;101294.94;5110991;28;20201;-79
2022/03/14 09:12:19;;;;;;;15.67;9.40;;;;;;;8.41;37.79;101282.75;5110812;28;20194;-80
2022/03/14 09:14:48;;;;;;;14.40;9.33;;;;;;;8.34;38.37;101292.19;5110921;28;20267;-82
2022/03/14 09:17:15;;;;;;;18.30;9.73;;;;;;;8.47;38.49;101295.72;5111063;28;20241;-84
2022/03/14 09:19:42;;;;;;;18.27;10.27;;;;;;;8.50;38.56;101282.81;5086255;28;20306;-82
2022/03/14 09:22:10;;;;;;;11.67;9.60;;;;;;;8.59;37.94;101301.88;5090215;28;20201;-79
2022/03/14 09:24:37;;;;;;;16.47;10.00;;;;;;;8.60;38.85;101297.56;5090135;28;20198;-84
2022/03/14 09:27:05;;;;;;;14.87;10.60;;;;;;;8.41;38.57;101300.84;5090396;28;20206;-83
2022/03/14 09:29:32;;;;;;;12.97;9.63;;;;;;;8.44;39.10;101299.19;5089736;28;20196;-82
2022/03/14 09:32:00;;;;;;;11.30;8.53;;;;;;;8.40;38.00;101301.72;5104528;28;20222;-84
2022/03/14 09:34:27;;;;;;;12.30;7.73;;;;;;;8.01;36.65;101254.75;5109045;28;20223;-84
2022/03/14 09:36:55;;;;;;;7.37;6.63;;;;;;;8.33;36.82;101301.66;5099081;28;20223;-77
2022/03/14 09:39:22;;;;;;;14.13;7.90;;;;;;;8.34;37.14;101266.31;5089822;28;20227;-82
2022/03/14 09:41:51;;;;;;;10.23;7.90;;;;;;;8.41;37.66;101288.78;5094966;28;20201;-84
2022/03/14 09:44:21;;;;;;;10.53;8.60;;;;;;;8.58;37.47;101291.50;5110020;28;20216;-81
2022/03/14 09:46:49;;;;;;;19.33;9.90;;;;;;;8.51;37.23;101277.66;5110110;28;20670;-82
2022/03/14 09:49:20;;;;;;;22.70;10.10;;;;;;;8.71;37.55;101294.19;5102265;28;20227;-81
2022/03/14 09:51:47;;;;;;;20.57;10.83;;;;;;;8.85;36.83;101304.66;5093995;28;20233;-79
2022/03/14 09:54:14;;;;;;;11.70;9.23;;;;;;;8.86;35.94;101305.53;5101092;28;20214;-84
2022/03/14 09:56:43;;;;;;;10.77;8.33;;;;;;;8.62;35.63;101307.06;5110254;28;20290;-83
2022/03/14 09:59:12;;;;;;;14.00;8.10;;;;;;;8.64;35.85;101305.38;5110164;28;20582;-81
2022/03/14 10:01:39;;;;;;;12.33;8.80;;;;;;;8.51;35.89;101306.13;5110173;28;20206;-83
2022/03/14 10:04:07;;;;;;;11.73;7.93;;;;;;;8.49;37.29;101296.59;5110112;28;20202;-82
2022/03/14 10:06:36;;;;;;;14.17;8.67;;;;;;;8.53;36.24;101293.19;5106078;28;20711;-84
2022/03/14 10:09:04;;;;;;;13.23;8.17;;;;;;;8.83;36.11;101302.91;5106867;28;20214;-84
2022/03/14 10:11:31;;;;;;;9.63;8.13;;;;;;;8.88;35.21;101304.69;5114480;28;20229;-84
2022/03/14 10:13:58;;;;;;;12.77;7.57;;;;;;;8.51;34.62;101285.41;5099495;28;20223;-84
2022/03/14 10:16:25;;;;;;;13.10;7.77;;;;;;;8.63;35.49;101303.63;5093416;28;20195;-84
2022/03/14 10:18:57;;;;;;;13.83;8.47;;;;;;;8.64;35.73;101300.19;5093051;28;20219;-76
2022/03/14 10:21:32;;;;;;;11.07;7.83;;;;;;;8.69;35.23;101293.31;5093141;28;20195;-79
2022/03/14 10:24:06;;;;;;;8.53;7.63;;;;;;;8.56;35.40;101288.94;5092920;28;20770;-78
2022/03/14 10:26:34;;;;;;;14.67;8.60;;;;;;;8.54;35.58;101297.53;5093521;28;20639;-77
2022/03/14 10:29:04;;;;;;;17.13;9.67;;;;;;;8.79;35.86;101293.41;5108955;27;20555;-78
2022/03/14 10:31:34;;;;;;;32.00;13.70;;;;;;;8.88;35.81;101288.28;5100864;28;20593;-79
2022/03/14 10:34:04;;;;;;;14.00;8.87;;;;;;;8.91;35.20;101270.19;5101838;28;20272;-77
2022/03/14 10:36:48;;;;;;;12.30;8.50;;;;;;;9.25;35.41;101277.28;5101013;28;20201;-78
2022/03/14 10:39:25;;;;;;;43.47;17.80;;;;;;;9.35;35.83;101289.41;5101194;28;20246;-78
2022/03/14 10:42:03;;;;;;;26.43;11.27;;;;;;;9.48;35.05;101284.28;5101033;28;20191;-78
2022/03/14 10:44:31;;;;;;;21.23;11.27;;;;;;;9.50;35.18;101279.94;5113179;28;20198;-77
2022/03/14 10:47:00;;;;;;;15.60;11.07;;;;;;;9.35;34.81;101252.25;5113002;28;20203;-77
2022/03/14 10:49:31;;;;;;;12.30;8.40;;;;;;;9.51;34.02;101282.53;5113546;28;20191;-78
2022/03/14 10:51:59;;;;;;;10.07;8.23;;;;;;;9.53;34.77;101277.38;5104924;28;20234;-78
2022/03/14 10:54:28;;;;;;;12.33;7.93;;;;;;;9.34;34.43;101266.94;5105128;28;20637;-78
2022/03/14 10:57:03;;;;;;;10.60;7.97;;;;;;;9.22;34.44;101272.06;5104960;28;20708;-77
2022/03/14 10:59:35;;;;;;;9.07;7.80;;;;;;;9.12;35.19;101259.94;5104955;28;20571;-78
2022/03/14 11:02:03;;;;;;;10.20;7.93;;;;;;;8.91;35.18;101231.34;5102891;28;20594;-78
2022/03/14 11:04:39;;;;;;;8.00;7.20;;;;;;;8.95;35.36;101256.38;5103644;28;20191;-78
2022/03/14 11:07:06;;;;;;;9.30;7.50;;;;;;;8.93;34.76;101240.81;5098789;28;20194;-78
2022/03/14 11:09:43;;;;;;;11.00;8.27;;;;;;;9.26;34.26;101253.06;5101961;28;20198;-78
2022/03/14 11:12:12;;;;;;;23.70;10.83;;;;;;;9.22;35.52;101238.38;5100641;28;20204;-79
2022/03/14 11:14:39;;;;;;;19.33;9.50;;;;;;;9.27;35.41;101251.34;5100943;28;20516;-84
2022/03/14 11:17:12;;;;;;;17.00;8.77;;;;;;;8.93;34.63;101217.50;5101051;28;20202;-85
2022/03/14 11:19:39;;;;;;;17.67;9.87;;;;;;;8.99;34.46;101216.69;5099113;28;20229;-85